IAD weather

Washington Dulles International Airport
Washington, District of Columbia, United States

Public forecast

Using degrees Fahrenheit for public forecast. Weather courtesy of forecast.io.

METAR (pilot weather report)

Retrieved 2018/08/16 04:52 UTC (10 minutes ago):

KIAD 160452Z 00000KT 10SM BKN250 23/22 A3007 RMK AO2 SLP179 T02280217 403170178

TAF (pilot weather forecast)

Forecast is more than 12 hours old.

Retrieved 2018/08/15 00:22 UTC (1 day ago):

TAF KIAD 152320Z 1600/1706 VRB03KT P6SM SCT250 FM161500 21005KT P6SM SCT050 BKN250 FM170000 VRB03KT P6SM SCT250